sensor_id;sensor_type;location;lat;lon;timestamp;temperature;humidity
8778;DHT22;4425;50.872;4.712;2023-12-20T00:00:29;7.10;99.90
8778;DHT22;4425;50.872;4.712;2023-12-20T00:02:56;7.10;99.90
8778;DHT22;4425;50.872;4.712;2023-12-20T08:33:50;6.00;99.90
8778;DHT22;4425;50.872;4.712;2023-12-20T08:36:19;6.10;99.90
8778;DHT22;4425;50.872;4.712;2023-12-20T08:38:47;6.10;99.90
8778;DHT22;4425;50.872;4.712;2023-12-20T08:41:14;6.20;99.90
8778;DHT22;4425;50.872;4.712;2023-12-20T08:43:40;6.20;99.90
8778;DHT22;4425;50.872;4.712;2023-12-20T08:46:08;6.40;99.90
8778;DHT22;4425;50.872;4.712;2023-12-20T08:48:36;6.40;99.90
8778;DHT22;4425;50.872;4.712;2023-12-20T08:51:04;6.50;99.90
8778;DHT22;4425;50.872;4.712;2023-12-20T08:53:32;6.60;99.90
8778;DHT22;4425;50.872;4.712;2023-12-20T08:56:00;6.70;99.90
8778;DHT22;4425;50.872;4.712;2023-12-20T08:58:27;6.60;99.90
8778;DHT22;4425;50.872;4.712;2023-12-20T09:00:54;6.70;99.90
8778;DHT22;4425;50.872;4.712;2023-12-20T09:03:21;6.70;99.90
8778;DHT22;4425;50.872;4.712;2023-12-20T09:05:48;6.80;99.90
8778;DHT22;4425;50.872;4.712;2023-12-20T09:08:16;6.70;99.90
8778;DHT22;4425;50.872;4.712;2023-12-20T09:10:43;6.80;99.90
8778;DHT22;4425;50.872;4.712;2023-12-20T09:13:10;6.70;99.90
8778;DHT22;4425;50.872;4.712;2023-12-20T09:15:37;6.70;99.90
8778;DHT22;4425;50.872;4.712;2023-12-20T09:18:04;6.70;99.90
8778;DHT22;4425;50.872;4.712;2023-12-20T09:20:32;6.70;99.90
8778;DHT22;4425;50.872;4.712;2023-12-20T09:22:59;6.60;99.90
8778;DHT22;4425;50.872;4.712;2023-12-20T09:25:28;6.60;99.90
8778;DHT22;4425;50.872;4.712;2023-12-20T09:27:55;6.60;99.90
8778;DHT22;4425;50.872;4.712;2023-12-20T09:30:22;6.70;99.90
8778;DHT22;4425;50.872;4.712;2023-12-20T09:32:49;6.80;99.90
8778;DHT22;4425;50.872;4.712;2023-12-20T09:35:16;6.80;99.90
8778;DHT22;4425;50.872;4.712;2023-12-20T09:37:43;6.80;99.90
8778;DHT22;4425;50.872;4.712;2023-12-20T09:40:13;6.80;99.90
8778;DHT22;4425;50.872;4.712;2023-12-20T09:42:48;6.80;99.90
8778;DHT22;4425;50.872;4.712;2023-12-20T09:45:20;6.90;99.90
8778;DHT22;4425;50.872;4.712;2023-12-20T09:47:48;6.90;99.90
8778;DHT22;4425;50.872;4.712;2023-12-20T09:50:17;7.00;99.90
8778;DHT22;4425;50.872;4.712;2023-12-20T09:52:46;7.00;99.90
8778;DHT22;4425;50.872;4.712;2023-12-20T09:55:17;7.10;99.90
8778;DHT22;4425;50.872;4.712;2023-12-20T09:57:46;7.10;99.90
8778;DHT22;4425;50.872;4.712;2023-12-20T10:00:13;7.20;99.90
8778;DHT22;4425;50.872;4.712;2023-12-20T10:02:48;7.20;99.90
8778;DHT22;4425;50.872;4.712;2023-12-20T10:05:17;7.40;99.90
8778;DHT22;4425;50.872;4.712;2023-12-20T10:07:47;7.40;99.90
8778;DHT22;4425;50.872;4.712;2023-12-20T10:10:14;7.40;99.90
8778;DHT22;4425;50.872;4.712;2023-12-20T10:12:42;7.40;99.90
8778;DHT22;4425;50.872;4.712;2023-12-20T10:15:29;7.50;99.90
8778;DHT22;4425;50.872;4.712;2023-12-20T10:17:56;7.50;99.90
8778;DHT22;4425;50.872;4.712;2023-12-20T10:20:24;7.60;99.90
8778;DHT22;4425;50.872;4.712;2023-12-20T10:22:51;7.70;99.90
8778;DHT22;4425;50.872;4.712;2023-12-20T10:25:19;7.70;99.90
8778;DHT22;4425;50.872;4.712;2023-12-20T10:27:46;7.70;99.90
8778;DHT22;4425;50.872;4.712;2023-12-20T10:30:14;7.70;99.90
8778;DHT22;4425;50.872;4.712;2023-12-20T10:32:42;7.70;99.90
8778;DHT22;4425;50.872;4.712;2023-12-20T10:35:09;7.70;99.90
8778;DHT22;4425;50.872;4.712;2023-12-20T10:37:37;7.70;99.90
8778;DHT22;4425;50.872;4.712;2023-12-20T10:40:05;7.70;99.90
8778;DHT22;4425;50.872;4.712;2023-12-20T10:42:32;7.80;99.90
8778;DHT22;4425;50.872;4.712;2023-12-20T10:45:01;7.80;99.90
8778;DHT22;4425;50.872;4.712;2023-12-20T10:47:30;7.80;99.90
8778;DHT22;4425;50.872;4.712;2023-12-20T10:49:59;7.90;99.90
8778;DHT22;4425;50.872;4.712;2023-12-20T10:52:28;7.90;99.90
8778;DHT22;4425;50.872;4.712;2023-12-20T10:54:56;7.90;99.90
8778;DHT22;4425;50.872;4.712;2023-12-20T10:57:25;7.90;99.90
8778;DHT22;4425;50.872;4.712;2023-12-20T10:59:54;7.90;99.90
8778;DHT22;4425;50.872;4.712;2023-12-20T11:02:22;7.90;99.90
8778;DHT22;4425;50.872;4.712;2023-12-20T11:04:53;7.90;99.90
8778;DHT22;4425;50.872;4.712;2023-12-20T11:07:37;7.90;99.90
8778;DHT22;4425;50.872;4.712;2023-12-20T11:10:13;8.00;99.90
8778;DHT22;4425;50.872;4.712;2023-12-20T11:12:47;8.00;99.90
8778;DHT22;4425;50.872;4.712;2023-12-20T11:15:16;8.10;99.90
8778;DHT22;4425;50.872;4.712;2023-12-20T11:17:44;8.10;99.90
8778;DHT22;4425;50.872;4.712;2023-12-20T11:20:12;8.20;99.90
8778;DHT22;4425;50.872;4.712;2023-12-20T11:22:52;8.20;99.90
8778;DHT22;4425;50.872;4.712;2023-12-20T11:25:19;8.20;99.90
8778;DHT22;4425;50.872;4.712;2023-12-20T11:28:07;8.20;99.90
8778;DHT22;4425;50.872;4.712;2023-12-20T11:30:42;8.20;99.90
8778;DHT22;4425;50.872;4.712;2023-12-20T11:33:09;8.30;99.90
8778;DHT22;4425;50.872;4.712;2023-12-20T11:35:36;8.20;99.90
8778;DHT22;4425;50.872;4.712;2023-12-20T11:38:08;8.20;99.90
8778;DHT22;4425;50.872;4.712;2023-12-20T11:40:36;8.30;99.90
8778;DHT22;4425;50.872;4.712;2023-12-20T11:43:03;8.20;99.90
8778;DHT22;4425;50.872;4.712;2023-12-20T11:45:31;8.30;99.90
8778;DHT22;4425;50.872;4.712;2023-12-20T11:47:58;8.20;99.90
8778;DHT22;4425;50.872;4.712;2023-12-20T11:50:25;8.30;99.90
8778;DHT22;4425;50.872;4.712;2023-12-20T11:52:53;8.40;99.90
8778;DHT22;4425;50.872;4.712;2023-12-20T11:55:22;8.30;99.90
8778;DHT22;4425;50.872;4.712;2023-12-20T11:57:50;8.30;99.90
8778;DHT22;4425;50.872;4.712;2023-12-20T12:00:18;8.30;99.90
8778;DHT22;4425;50.872;4.712;2023-12-20T12:02:56;8.30;99.90
8778;DHT22;4425;50.872;4.712;2023-12-20T12:05:23;8.30;99.90
8778;DHT22;4425;50.872;4.712;2023-12-20T12:07:50;8.40;99.90
8778;DHT22;4425;50.872;4.712;2023-12-20T12:10:17;8.40;99.90
8778;DHT22;4425;50.872;4.712;2023-12-20T12:12:45;8.30;99.90
8778;DHT22;4425;50.872;4.712;2023-12-20T12:15:12;8.40;99.90
8778;DHT22;4425;50.872;4.712;2023-12-20T12:17:39;8.30;99.90
8778;DHT22;4425;50.872;4.712;2023-12-20T12:20:07;8.40;99.90
8778;DHT22;4425;50.872;4.712;2023-12-20T12:22:35;8.40;99.90
8778;DHT22;4425;50.872;4.712;2023-12-20T12:25:09;8.40;99.90
8778;DHT22;4425;50.872;4.712;2023-12-20T12:27:37;8.40;99.90
8778;DHT22;4425;50.872;4.712;2023-12-20T12:30:07;8.40;99.90
8778;DHT22;4425;50.872;4.712;2023-12-20T12:32:35;8.40;99.90
8778;DHT22;4425;50.872;4.712;2023-12-20T12:35:03;8.30;99.90
8778;DHT22;4425;50.872;4.712;2023-12-20T12:37:33;8.40;99.90
8778;DHT22;4425;50.872;4.712;2023-12-20T12:40:00;8.50;99.90
8778;DHT22;4425;50.872;4.712;2023-12-20T12:42:28;8.40;99.90
8778;DHT22;4425;50.872;4.712;2023-12-20T12:44:55;8.40;99.90
8778;DHT22;4425;50.872;4.712;2023-12-20T12:47:24;8.50;99.90
8778;DHT22;4425;50.872;4.712;2023-12-20T12:49:54;8.40;99.90
8778;DHT22;4425;50.872;4.712;2023-12-20T12:52:21;8.40;99.90
8778;DHT22;4425;50.872;4.712;2023-12-20T12:54:51;8.40;99.90
8778;DHT22;4425;50.872;4.712;2023-12-20T12:57:18;8.30;99.90
8778;DHT22;4425;50.872;4.712;2023-12-20T12:59:45;8.30;99.90
8778;DHT22;4425;50.872;4.712;2023-12-20T13:02:13;8.40;99.90
8778;DHT22;4425;50.872;4.712;2023-12-20T13:04:41;8.40;99.90
8778;DHT22;4425;50.872;4.712;2023-12-20T13:07:09;8.50;99.90
8778;DHT22;4425;50.872;4.712;2023-12-20T13:09:37;8.40;99.90
8778;DHT22;4425;50.872;4.712;2023-12-20T13:12:05;8.50;99.90
8778;DHT22;4425;50.872;4.712;2023-12-20T13:14:33;8.50;99.90
8778;DHT22;4425;50.872;4.712;2023-12-20T13:17:00;8.50;99.90
8778;DHT22;4425;50.872;4.712;2023-12-20T13:19:27;8.50;99.90
8778;DHT22;4425;50.872;4.712;2023-12-20T13:21:55;8.50;99.90
8778;DHT22;4425;50.872;4.712;2023-12-20T13:24:22;8.40;99.90
8778;DHT22;4425;50.872;4.712;2023-12-20T13:26:49;8.50;99.90
8778;DHT22;4425;50.872;4.712;2023-12-20T13:29:16;8.50;99.90
8778;DHT22;4425;50.872;4.712;2023-12-20T13:31:42;8.50;99.90
8778;DHT22;4425;50.872;4.712;2023-12-20T13:34:09;8.50;99.90
8778;DHT22;4425;50.872;4.712;2023-12-20T13:36:35;8.60;99.90
8778;DHT22;4425;50.872;4.712;2023-12-20T13:39:04;8.60;99.90
8778;DHT22;4425;50.872;4.712;2023-12-20T13:41:32;8.60;99.90
8778;DHT22;4425;50.872;4.712;2023-12-20T13:43:59;8.60;99.90
8778;DHT22;4425;50.872;4.712;2023-12-20T13:46:27;8.50;99.90
8778;DHT22;4425;50.872;4.712;2023-12-20T13:48:55;8.60;99.90
8778;DHT22;4425;50.872;4.712;2023-12-20T13:51:22;8.60;99.90
8778;DHT22;4425;50.872;4.712;2023-12-20T13:53:49;8.60;99.90
8778;DHT22;4425;50.872;4.712;2023-12-20T13:56:18;8.60;99.90
8778;DHT22;4425;50.872;4.712;2023-12-20T13:58:46;8.60;99.90
8778;DHT22;4425;50.872;4.712;2023-12-20T14:01:13;8.60;99.90
8778;DHT22;4425;50.872;4.712;2023-12-20T14:03:40;8.60;99.90
8778;DHT22;4425;50.872;4.712;2023-12-20T14:06:07;8.60;99.90
8778;DHT22;4425;50.872;4.712;2023-12-20T14:08:34;8.60;99.90
8778;DHT22;4425;50.872;4.712;2023-12-20T14:11:01;8.60;99.90
8778;DHT22;4425;50.872;4.712;2023-12-20T14:13:29;8.50;99.90
8778;DHT22;4425;50.872;4.712;2023-12-20T14:15:57;8.40;99.90
8778;DHT22;4425;50.872;4.712;2023-12-20T14:18:25;8.50;99.90
8778;DHT22;4425;50.872;4.712;2023-12-20T14:20:53;8.60;99.90
8778;DHT22;4425;50.872;4.712;2023-12-20T14:23:20;8.60;99.90
8778;DHT22;4425;50.872;4.712;2023-12-20T14:25:48;8.70;99.90
8778;DHT22;4425;50.872;4.712;2023-12-20T14:28:15;8.70;99.90
8778;DHT22;4425;50.872;4.712;2023-12-20T14:30:43;8.80;99.90
8778;DHT22;4425;50.872;4.712;2023-12-20T14:33:10;8.80;99.90
8778;DHT22;4425;50.872;4.712;2023-12-20T14:35:37;8.80;99.90
8778;DHT22;4425;50.872;4.712;2023-12-20T14:38:04;8.80;99.90
8778;DHT22;4425;50.872;4.712;2023-12-20T14:40:31;8.80;99.90
8778;DHT22;4425;50.872;4.712;2023-12-20T14:42:58;8.90;99.90
8778;DHT22;4425;50.872;4.712;2023-12-20T14:45:25;8.90;99.90
8778;DHT22;4425;50.872;4.712;2023-12-20T14:47:54;8.90;99.90
8778;DHT22;4425;50.872;4.712;2023-12-20T14:50:22;8.80;99.90
8778;DHT22;4425;50.872;4.712;2023-12-20T14:52:48;8.90;99.90
8778;DHT22;4425;50.872;4.712;2023-12-20T14:55:16;8.90;99.90
8778;DHT22;4425;50.872;4.712;2023-12-20T14:57:43;8.90;99.90
8778;DHT22;4425;50.872;4.712;2023-12-20T15:00:10;8.90;99.90
8778;DHT22;4425;50.872;4.712;2023-12-20T15:02:41;8.90;99.90
8778;DHT22;4425;50.872;4.712;2023-12-20T15:05:10;8.90;99.90
8778;DHT22;4425;50.872;4.712;2023-12-20T15:07:37;8.90;99.90
8778;DHT22;4425;50.872;4.712;2023-12-20T15:10:05;8.90;99.90
8778;DHT22;4425;50.872;4.712;2023-12-20T15:12:31;8.90;99.90
8778;DHT22;4425;50.872;4.712;2023-12-20T15:14:59;8.90;99.90
8778;DHT22;4425;50.872;4.712;2023-12-20T15:17:26;9.00;99.90
8778;DHT22;4425;50.872;4.712;2023-12-20T15:19:53;8.90;99.90
8778;DHT22;4425;50.872;4.712;2023-12-20T15:22:21;8.90;99.90
8778;DHT22;4425;50.872;4.712;2023-12-20T15:24:49;9.00;99.90
8778;DHT22;4425;50.872;4.712;2023-12-20T15:27:17;9.00;99.90
8778;DHT22;4425;50.872;4.712;2023-12-20T15:29:44;8.90;99.90
8778;DHT22;4425;50.872;4.712;2023-12-20T15:32:11;8.90;99.90
8778;DHT22;4425;50.872;4.712;2023-12-20T15:34:37;9.00;99.90
8778;DHT22;4425;50.872;4.712;2023-12-20T15:37:04;9.00;99.90
8778;DHT22;4425;50.872;4.712;2023-12-20T15:39:33;9.00;99.90
8778;DHT22;4425;50.872;4.712;2023-12-20T15:41:59;9.10;99.90
8778;DHT22;4425;50.872;4.712;2023-12-20T15:44:26;9.00;99.90
8778;DHT22;4425;50.872;4.712;2023-12-20T15:46:53;9.00;99.90
8778;DHT22;4425;50.872;4.712;2023-12-20T15:49:20;9.00;99.90
8778;DHT22;4425;50.872;4.712;2023-12-20T15:51:47;9.10;99.90
8778;DHT22;4425;50.872;4.712;2023-12-20T15:54:14;9.00;99.90
8778;DHT22;4425;50.872;4.712;2023-12-20T15:56:42;9.00;99.90
8778;DHT22;4425;50.872;4.712;2023-12-20T15:59:10;9.10;99.90
8778;DHT22;4425;50.872;4.712;2023-12-20T16:01:37;9.10;99.90
8778;DHT22;4425;50.872;4.712;2023-12-20T16:04:04;9.10;99.90
8778;DHT22;4425;50.872;4.712;2023-12-20T16:06:31;9.10;99.90
8778;DHT22;4425;50.872;4.712;2023-12-20T16:09:00;9.10;99.90
8778;DHT22;4425;50.872;4.712;2023-12-20T16:11:27;9.20;99.90
8778;DHT22;4425;50.872;4.712;2023-12-20T16:13:56;9.10;99.90
8778;DHT22;4425;50.872;4.712;2023-12-20T16:16:22;9.10;99.90
8778;DHT22;4425;50.872;4.712;2023-12-20T16:18:49;9.10;99.90
8778;DHT22;4425;50.872;4.712;2023-12-20T16:21:16;9.20;99.90
8778;DHT22;4425;50.872;4.712;2023-12-20T16:23:44;9.10;99.90
8778;DHT22;4425;50.872;4.712;2023-12-20T16:26:12;9.10;99.90
8778;DHT22;4425;50.872;4.712;2023-12-20T16:28:38;9.10;99.90
8778;DHT22;4425;50.872;4.712;2023-12-20T16:31:09;9.10;99.90
8778;DHT22;4425;50.872;4.712;2023-12-20T16:33:36;9.10;99.90
8778;DHT22;4425;50.872;4.712;2023-12-20T16:36:03;9.10;99.90
8778;DHT22;4425;50.872;4.712;2023-12-20T16:38:30;9.10;99.90
8778;DHT22;4425;50.872;4.712;2023-12-20T16:40:57;9.10;99.90
8778;DHT22;4425;50.872;4.712;2023-12-20T16:43:24;9.20;99.90
8778;DHT22;4425;50.872;4.712;2023-12-20T16:45:51;9.10;99.90
8778;DHT22;4425;50.872;4.712;2023-12-20T16:48:19;9.20;99.90
8778;DHT22;4425;50.872;4.712;2023-12-20T16:50:46;9.10;99.90
8778;DHT22;4425;50.872;4.712;2023-12-20T16:53:14;9.20;99.90
8778;DHT22;4425;50.872;4.712;2023-12-20T16:55:41;9.20;99.90
8778;DHT22;4425;50.872;4.712;2023-12-20T16:58:09;9.20;99.90
8778;DHT22;4425;50.872;4.712;2023-12-20T17:00:38;9.20;99.90
8778;DHT22;4425;50.872;4.712;2023-12-20T17:03:06;9.10;99.90
8778;DHT22;4425;50.872;4.712;2023-12-20T17:05:34;9.20;99.90
8778;DHT22;4425;50.872;4.712;2023-12-20T17:08:01;9.20;99.90
8778;DHT22;4425;50.872;4.712;2023-12-20T17:10:28;9.30;99.90
8778;DHT22;4425;50.872;4.712;2023-12-20T17:12:55;9.10;99.90
8778;DHT22;4425;50.872;4.712;2023-12-20T17:15:22;9.10;99.90
8778;DHT22;4425;50.872;4.712;2023-12-20T17:17:49;9.20;99.90
8778;DHT22;4425;50.872;4.712;2023-12-20T17:20:16;9.10;99.90
8778;DHT22;4425;50.872;4.712;2023-12-20T17:22:44;9.10;99.90
8778;DHT22;4425;50.872;4.712;2023-12-20T17:25:11;9.10;99.90
8778;DHT22;4425;50.872;4.712;2023-12-20T17:27:39;9.10;99.90
8778;DHT22;4425;50.872;4.712;2023-12-20T17:30:06;9.10;99.90
8778;DHT22;4425;50.872;4.712;2023-12-20T17:32:33;9.10;99.90
8778;DHT22;4425;50.872;4.712;2023-12-20T17:35:03;9.10;99.90
8778;DHT22;4425;50.872;4.712;2023-12-20T17:37:29;9.10;99.90
8778;DHT22;4425;50.872;4.712;2023-12-20T17:39:58;9.10;99.90
8778;DHT22;4425;50.872;4.712;2023-12-20T17:42:25;9.10;99.90
8778;DHT22;4425;50.872;4.712;2023-12-20T17:44:51;9.20;99.90
8778;DHT22;4425;50.872;4.712;2023-12-20T17:47:18;9.10;99.90
8778;DHT22;4425;50.872;4.712;2023-12-20T17:49:45;9.30;99.90
8778;DHT22;4425;50.872;4.712;2023-12-20T17:52:12;9.10;99.90
8778;DHT22;4425;50.872;4.712;2023-12-20T17:54:39;9.10;99.90
8778;DHT22;4425;50.872;4.712;2023-12-20T17:57:07;9.20;99.90
8778;DHT22;4425;50.872;4.712;2023-12-20T17:59:34;9.10;99.90
8778;DHT22;4425;50.872;4.712;2023-12-20T18:02:01;9.10;99.90
8778;DHT22;4425;50.872;4.712;2023-12-20T18:04:29;9.10;99.90
8778;DHT22;4425;50.872;4.712;2023-12-20T18:06:55;9.00;99.90
8778;DHT22;4425;50.872;4.712;2023-12-20T18:09:22;9.00;99.90
8778;DHT22;4425;50.872;4.712;2023-12-20T18:11:49;9.10;99.90
8778;DHT22;4425;50.872;4.712;2023-12-20T18:14:17;9.10;99.90
8778;DHT22;4425;50.872;4.712;2023-12-20T18:16:44;9.10;99.90
8778;DHT22;4425;50.872;4.712;2023-12-20T18:19:11;9.20;99.90
8778;DHT22;4425;50.872;4.712;2023-12-20T18:21:38;9.20;99.90
8778;DHT22;4425;50.872;4.712;2023-12-20T18:24:05;9.20;99.90
8778;DHT22;4425;50.872;4.712;2023-12-20T18:26:32;9.10;99.90
8778;DHT22;4425;50.872;4.712;2023-12-20T18:29:01;9.10;99.90
8778;DHT22;4425;50.872;4.712;2023-12-20T18:31:30;9.10;99.90
8778;DHT22;4425;50.872;4.712;2023-12-20T18:33:57;9.10;99.90
8778;DHT22;4425;50.872;4.712;2023-12-20T18:36:24;9.10;99.90
8778;DHT22;4425;50.872;4.712;2023-12-20T18:38:51;9.20;99.90
8778;DHT22;4425;50.872;4.712;2023-12-20T18:41:18;9.20;99.90
8778;DHT22;4425;50.872;4.712;2023-12-20T18:43:44;9.20;99.90
8778;DHT22;4425;50.872;4.712;2023-12-20T18:46:12;9.10;99.90
8778;DHT22;4425;50.872;4.712;2023-12-20T18:48:41;9.20;99.90
8778;DHT22;4425;50.872;4.712;2023-12-20T18:51:08;9.20;99.90
8778;DHT22;4425;50.872;4.712;2023-12-20T18:53:35;9.20;99.90
8778;DHT22;4425;50.872;4.712;2023-12-20T18:56:04;9.30;99.90
8778;DHT22;4425;50.872;4.712;2023-12-20T18:58:30;9.20;99.90
8778;DHT22;4425;50.872;4.712;2023-12-20T19:00:57;9.20;99.90
8778;DHT22;4425;50.872;4.712;2023-12-20T19:03:26;9.20;99.90
8778;DHT22;4425;50.872;4.712;2023-12-20T19:05:54;9.20;99.90
8778;DHT22;4425;50.872;4.712;2023-12-20T19:08:23;9.30;99.90
8778;DHT22;4425;50.872;4.712;2023-12-20T19:10:50;9.40;99.90
8778;DHT22;4425;50.872;4.712;2023-12-20T19:13:21;9.40;99.90
8778;DHT22;4425;50.872;4.712;2023-12-20T19:15:52;9.40;99.90
8778;DHT22;4425;50.872;4.712;2023-12-20T19:18:20;9.40;99.90
8778;DHT22;4425;50.872;4.712;2023-12-20T19:20:46;9.40;99.90
8778;DHT22;4425;50.872;4.712;2023-12-20T19:23:15;9.50;99.90
8778;DHT22;4425;50.872;4.712;2023-12-20T19:25:42;9.50;99.90
8778;DHT22;4425;50.872;4.712;2023-12-20T19:28:09;9.50;99.90
8778;DHT22;4425;50.872;4.712;2023-12-20T19:30:35;9.50;99.90
8778;DHT22;4425;50.872;4.712;2023-12-20T19:33:03;9.50;99.90
8778;DHT22;4425;50.872;4.712;2023-12-20T19:35:30;9.50;99.90
8778;DHT22;4425;50.872;4.712;2023-12-20T19:37:57;9.60;99.90
8778;DHT22;4425;50.872;4.712;2023-12-20T19:40:25;9.50;99.90
8778;DHT22;4425;50.872;4.712;2023-12-20T19:42:52;9.60;99.90
8778;DHT22;4425;50.872;4.712;2023-12-20T19:45:19;9.60;99.90
8778;DHT22;4425;50.872;4.712;2023-12-20T19:47:48;9.60;99.90
8778;DHT22;4425;50.872;4.712;2023-12-20T19:50:15;9.60;99.90
8778;DHT22;4425;50.872;4.712;2023-12-20T19:52:42;9.70;99.90
8778;DHT22;4425;50.872;4.712;2023-12-20T19:55:09;9.60;99.90
8778;DHT22;4425;50.872;4.712;2023-12-20T19:57:37;9.70;99.90
8778;DHT22;4425;50.872;4.712;2023-12-20T20:00:05;9.60;99.90
8778;DHT22;4425;50.872;4.712;2023-12-20T20:02:33;9.70;99.90
8778;DHT22;4425;50.872;4.712;2023-12-20T20:05:01;9.70;99.90
8778;DHT22;4425;50.872;4.712;2023-12-20T20:07:28;9.60;99.90
8778;DHT22;4425;50.872;4.712;2023-12-20T20:09:55;9.60;99.90
8778;DHT22;4425;50.872;4.712;2023-12-20T20:12:22;9.60;99.90
8778;DHT22;4425;50.872;4.712;2023-12-20T20:14:50;9.60;99.90
8778;DHT22;4425;50.872;4.712;2023-12-20T20:17:17;9.70;99.90
8778;DHT22;4425;50.872;4.712;2023-12-20T20:19:44;9.70;99.90
8778;DHT22;4425;50.872;4.712;2023-12-20T20:22:11;9.70;99.90
8778;DHT22;4425;50.872;4.712;2023-12-20T20:24:38;9.60;99.90
8778;DHT22;4425;50.872;4.712;2023-12-20T20:27:05;9.80;99.90
8778;DHT22;4425;50.872;4.712;2023-12-20T20:29:32;9.70;99.90
8778;DHT22;4425;50.872;4.712;2023-12-20T20:32:00;9.70;99.90
8778;DHT22;4425;50.872;4.712;2023-12-20T20:34:26;9.70;99.90
8778;DHT22;4425;50.872;4.712;2023-12-20T20:36:54;9.80;99.90
8778;DHT22;4425;50.872;4.712;2023-12-20T20:39:21;9.80;99.90
8778;DHT22;4425;50.872;4.712;2023-12-20T20:41:48;9.80;99.90
8778;DHT22;4425;50.872;4.712;2023-12-20T20:44:15;9.90;99.90
8778;DHT22;4425;50.872;4.712;2023-12-20T20:46:42;9.90;99.90
8778;DHT22;4425;50.872;4.712;2023-12-20T20:49:11;9.80;99.90
8778;DHT22;4425;50.872;4.712;2023-12-20T20:51:38;9.90;99.90
8778;DHT22;4425;50.872;4.712;2023-12-20T20:54:06;9.90;99.90
8778;DHT22;4425;50.872;4.712;2023-12-20T20:56:36;9.90;99.90
8778;DHT22;4425;50.872;4.712;2023-12-20T20:59:05;9.90;99.90
8778;DHT22;4425;50.872;4.712;2023-12-20T21:01:32;9.90;99.90
8778;DHT22;4425;50.872;4.712;2023-12-20T21:04:00;9.90;99.90
8778;DHT22;4425;50.872;4.712;2023-12-20T21:06:30;9.90;99.90
8778;DHT22;4425;50.872;4.712;2023-12-20T21:08:59;10.00;99.90
8778;DHT22;4425;50.872;4.712;2023-12-20T21:11:26;10.00;99.90
8778;DHT22;4425;50.872;4.712;2023-12-20T21:13:53;10.00;99.90
8778;DHT22;4425;50.872;4.712;2023-12-20T21:16:20;10.00;99.90
8778;DHT22;4425;50.872;4.712;2023-12-20T21:18:47;10.00;99.90
8778;DHT22;4425;50.872;4.712;2023-12-20T21:21:14;10.00;99.90
8778;DHT22;4425;50.872;4.712;2023-12-20T21:23:43;10.00;99.90
8778;DHT22;4425;50.872;4.712;2023-12-20T21:26:10;10.00;99.90
8778;DHT22;4425;50.872;4.712;2023-12-20T21:28:37;10.00;99.90
8778;DHT22;4425;50.872;4.712;2023-12-20T21:31:04;10.00;99.90
8778;DHT22;4425;50.872;4.712;2023-12-20T21:33:31;10.00;99.90
8778;DHT22;4425;50.872;4.712;2023-12-20T21:35:58;10.00;99.90
8778;DHT22;4425;50.872;4.712;2023-12-20T21:38:25;9.90;99.90
8778;DHT22;4425;50.872;4.712;2023-12-20T21:40:53;10.00;99.90
8778;DHT22;4425;50.872;4.712;2023-12-20T21:43:20;9.90;99.90
8778;DHT22;4425;50.872;4.712;2023-12-20T21:45:48;9.80;99.90
8778;DHT22;4425;50.872;4.712;2023-12-20T21:48:15;9.80;99.90
8778;DHT22;4425;50.872;4.712;2023-12-20T21:50:44;9.80;99.90
8778;DHT22;4425;50.872;4.712;2023-12-20T21:53:11;9.60;99.90
8778;DHT22;4425;50.872;4.712;2023-12-20T21:55:39;9.70;99.90
8778;DHT22;4425;50.872;4.712;2023-12-20T21:58:08;9.70;99.90
8778;DHT22;4425;50.872;4.712;2023-12-20T22:00:35;9.70;99.90
8778;DHT22;4425;50.872;4.712;2023-12-20T22:03:02;9.60;99.90
8778;DHT22;4425;50.872;4.712;2023-12-20T22:05:33;9.60;99.90
8778;DHT22;4425;50.872;4.712;2023-12-20T22:08:00;9.60;99.90
8778;DHT22;4425;50.872;4.712;2023-12-20T22:10:27;9.70;99.90
8778;DHT22;4425;50.872;4.712;2023-12-20T22:12:54;9.60;99.90
8778;DHT22;4425;50.872;4.712;2023-12-20T22:15:22;9.50;99.90
8778;DHT22;4425;50.872;4.712;2023-12-20T22:17:50;9.50;99.90
8778;DHT22;4425;50.872;4.712;2023-12-20T22:20:17;9.60;99.90
8778;DHT22;4425;50.872;4.712;2023-12-20T22:22:44;9.50;99.90
8778;DHT22;4425;50.872;4.712;2023-12-20T22:25:11;9.60;99.90
8778;DHT22;4425;50.872;4.712;2023-12-20T22:27:38;9.60;99.90
8778;DHT22;4425;50.872;4.712;2023-12-20T22:30:06;9.60;99.90
8778;DHT22;4425;50.872;4.712;2023-12-20T22:32:35;9.60;99.90
8778;DHT22;4425;50.872;4.712;2023-12-20T22:35:04;9.60;99.90
8778;DHT22;4425;50.872;4.712;2023-12-20T22:37:32;9.60;99.90
8778;DHT22;4425;50.872;4.712;2023-12-20T22:39:59;9.60;99.90
8778;DHT22;4425;50.872;4.712;2023-12-20T22:42:26;9.70;99.90
8778;DHT22;4425;50.872;4.712;2023-12-20T22:44:53;9.60;99.90
8778;DHT22;4425;50.872;4.712;2023-12-20T22:47:22;9.70;99.90
8778;DHT22;4425;50.872;4.712;2023-12-20T22:49:52;9.70;99.90
8778;DHT22;4425;50.872;4.712;2023-12-20T22:52:21;9.70;99.90
8778;DHT22;4425;50.872;4.712;2023-12-20T22:54:48;9.70;99.90
8778;DHT22;4425;50.872;4.712;2023-12-20T22:57:16;9.70;99.90
8778;DHT22;4425;50.872;4.712;2023-12-20T22:59:43;9.70;99.90
8778;DHT22;4425;50.872;4.712;2023-12-20T23:02:12;9.70;99.90
8778;DHT22;4425;50.872;4.712;2023-12-20T23:04:40;9.70;99.90
8778;DHT22;4425;50.872;4.712;2023-12-20T23:07:10;9.70;99.90
8778;DHT22;4425;50.872;4.712;2023-12-20T23:09:37;9.70;99.90
8778;DHT22;4425;50.872;4.712;2023-12-20T23:12:05;9.80;99.90
8778;DHT22;4425;50.872;4.712;2023-12-20T23:14:32;9.80;99.90
8778;DHT22;4425;50.872;4.712;2023-12-20T23:16:59;9.70;99.90
8778;DHT22;4425;50.872;4.712;2023-12-20T23:19:26;9.80;99.90
8778;DHT22;4425;50.872;4.712;2023-12-20T23:21:54;9.70;99.90
8778;DHT22;4425;50.872;4.712;2023-12-20T23:24:23;9.70;99.90
8778;DHT22;4425;50.872;4.712;2023-12-20T23:26:50;9.80;99.90
8778;DHT22;4425;50.872;4.712;2023-12-20T23:29:17;9.80;99.90
8778;DHT22;4425;50.872;4.712;2023-12-20T23:31:44;9.80;99.90
8778;DHT22;4425;50.872;4.712;2023-12-20T23:34:11;9.90;99.90
8778;DHT22;4425;50.872;4.712;2023-12-20T23:36:38;9.90;99.90
8778;DHT22;4425;50.872;4.712;2023-12-20T23:39:05;9.90;99.90
8778;DHT22;4425;50.872;4.712;2023-12-20T23:41:34;9.90;99.90
8778;DHT22;4425;50.872;4.712;2023-12-20T23:44:01;9.90;99.90
8778;DHT22;4425;50.872;4.712;2023-12-20T23:46:28;10.00;99.90
8778;DHT22;4425;50.872;4.712;2023-12-20T23:48:55;10.00;99.90
8778;DHT22;4425;50.872;4.712;2023-12-20T23:51:22;10.10;99.90
8778;DHT22;4425;50.872;4.712;2023-12-20T23:53:49;10.00;99.90
8778;DHT22;4425;50.872;4.712;2023-12-20T23:56:16;10.00;99.90
8778;DHT22;4425;50.872;4.712;2023-12-20T23:58:44;10.10;99.90
